createdAt,value
2022-10-13T00:00:59.675Z,101915.19
2022-10-13T00:03:27.834Z,101909.06
2022-10-13T00:05:55.746Z,101913.47
2022-10-13T00:08:26.156Z,101904.56
2022-10-13T00:10:54.121Z,101905.50
2022-10-13T00:13:23.369Z,101904.63
2022-10-13T00:15:51.358Z,101895.66
2022-10-13T00:18:19.639Z,101897.47
2022-10-13T00:20:49.691Z,101893.03
2022-10-13T00:23:18.558Z,101890.34
2022-10-13T00:25:48.279Z,101891.31
2022-10-13T00:28:17.116Z,101877.81
2022-10-13T00:30:47.456Z,101886.81
2022-10-13T00:33:15.696Z,101873.41
2022-10-13T00:35:48.408Z,101869.00
2022-10-13T00:38:17.330Z,101858.28
2022-10-13T00:40:46.721Z,101869.88
2022-10-13T00:43:18.644Z,101864.59
2022-10-13T00:45:50.079Z,101860.09
2022-10-13T00:48:20.222Z,101860.09
2022-10-13T00:50:49.625Z,101858.44
2022-10-13T00:53:20.227Z,101863.75
2022-10-13T00:55:49.254Z,101878.03
2022-10-13T00:58:19.550Z,101868.19
2022-10-13T01:00:53.242Z,101865.53
2022-10-13T01:03:22.356Z,101869.16
2022-10-13T01:05:52.416Z,101865.59
2022-10-13T01:08:21.877Z,101871.91
2022-10-13T01:10:59.992Z,101874.59
2022-10-13T01:13:35.739Z,101855.84
2022-10-13T01:16:10.632Z,101859.44
2022-10-13T01:18:45.787Z,101864.78
2022-10-13T01:21:21.083Z,101856.75
2022-10-13T01:24:23.478Z,101857.66
2022-10-13T01:27:09.642Z,101859.44
2022-10-13T01:30:10.516Z,101856.75
2022-10-13T01:33:05.134Z,101856.75
2022-10-13T01:35:42.926Z,101848.72
2022-10-13T01:38:22.513Z,101856.75
2022-10-13T01:40:59.826Z,101850.53
2022-10-13T01:43:31.840Z,101852.34
2022-10-13T01:46:07.208Z,101849.66
2022-10-13T01:48:39.044Z,101844.31
2022-10-13T01:51:10.481Z,101839.81
2022-10-13T01:53:39.698Z,101840.69
2022-10-13T01:56:08.199Z,101844.31
2022-10-13T01:58:38.695Z,101847.00
2022-10-13T02:01:23.339Z,101855.03
2022-10-13T02:04:01.195Z,101841.63
2022-10-13T02:06:33.878Z,101845.25
2022-10-13T02:09:06.114Z,101834.56
2022-10-13T02:11:33.927Z,101841.72
2022-10-13T02:14:09.255Z,101836.38
2022-10-13T02:16:42.891Z,101831.97
2022-10-13T02:19:14.787Z,101834.56
2022-10-13T02:21:43.555Z,101831.97
2022-10-13T02:24:11.977Z,101823.97
2022-10-13T02:26:41.246Z,101829.34
2022-10-13T02:29:10.719Z,101823.97
2022-10-13T02:31:41.528Z,101822.16
2022-10-13T02:34:10.182Z,101812.41
2022-10-13T02:36:39.135Z,101817.75
2022-10-13T02:39:08.332Z,101811.53
2022-10-13T02:41:36.497Z,101814.22
2022-10-13T02:44:04.493Z,101816.03
2022-10-13T02:46:32.850Z,101816.88
2022-10-13T02:49:02.316Z,101811.53
2022-10-13T02:51:30.323Z,101806.19
2022-10-13T02:53:58.329Z,101807.13
2022-10-13T02:56:26.394Z,101800.91
2022-10-13T02:58:54.354Z,101795.56
2022-10-13T03:01:22.299Z,101795.56
2022-10-13T03:03:50.266Z,101796.41
2022-10-13T03:06:19.605Z,101788.38
2022-10-13T03:08:47.535Z,101790.09
2022-10-13T03:11:15.476Z,101791.06
2022-10-13T03:13:43.406Z,101783.03
2022-10-13T03:16:11.402Z,101778.53
2022-10-13T03:18:39.292Z,101777.66
2022-10-13T03:21:10.009Z,101769.69
2022-10-13T03:23:39.310Z,101775.00
2022-10-13T03:26:10.072Z,101766.94
2022-10-13T03:28:38.117Z,101772.31
2022-10-13T03:31:09.183Z,101770.53
2022-10-13T03:33:37.465Z,101770.53
2022-10-13T03:36:08.690Z,101760.72
2022-10-13T03:38:36.979Z,101754.47
2022-10-13T03:41:11.477Z,101756.28
2022-10-13T03:43:39.741Z,101750.06
2022-10-13T03:46:08.908Z,101737.63
2022-10-13T03:48:37.388Z,101744.72
2022-10-13T03:51:10.021Z,101747.41
2022-10-13T03:53:38.229Z,101743.00
2022-10-13T03:56:07.912Z,101749.22
2022-10-13T03:58:37.560Z,101756.38
2022-10-13T04:01:06.824Z,101750.16
2022-10-13T04:03:35.733Z,101745.66
2022-10-13T04:06:04.760Z,101749.28
2022-10-13T04:08:34.064Z,101746.63
2022-10-13T04:11:03.609Z,101754.66
2022-10-13T04:13:31.869Z,101752.03
2022-10-13T04:16:04.672Z,101749.28
2022-10-13T04:18:32.776Z,101732.34
2022-10-13T04:21:00.661Z,101736.81
2022-10-13T04:23:28.675Z,101742.28
2022-10-13T04:25:57.419Z,101745.81
2022-10-13T04:28:25.575Z,101734.25
2022-10-13T04:30:53.784Z,101730.69
2022-10-13T04:33:23.068Z,101724.38
2022-10-13T04:35:51.020Z,101716.34
2022-10-13T04:38:20.998Z,101711.94
2022-10-13T04:40:50.466Z,101724.38
2022-10-13T04:43:18.670Z,101706.59
2022-10-13T04:45:46.636Z,101711.00
2022-10-13T04:48:14.713Z,101704.78
2022-10-13T04:50:44.041Z,101713.69
2022-10-13T04:53:15.439Z,101705.63
2022-10-13T04:55:46.881Z,101711.00
2022-10-13T04:58:14.830Z,101707.47
2022-10-13T05:00:47.158Z,101720.75
2022-10-13T05:03:15.167Z,101721.72
2022-10-13T05:05:44.459Z,101717.16
2022-10-13T05:08:12.595Z,101710.03
2022-10-13T05:10:40.554Z,101710.03
2022-10-13T05:13:08.480Z,101713.59
2022-10-13T05:15:39.591Z,101703.78
2022-10-13T05:18:07.554Z,101694.94
2022-10-13T05:20:38.031Z,101691.28
2022-10-13T05:23:07.281Z,101681.53
2022-10-13T05:25:35.642Z,101701.09
2022-10-13T05:28:05.005Z,101713.53
2022-10-13T05:30:33.657Z,101716.22
2022-10-13T05:33:01.650Z,101728.75
2022-10-13T05:35:29.749Z,101722.50
2022-10-13T05:37:59.940Z,101726.13
2022-10-13T05:40:29.533Z,101720.75
2022-10-13T05:42:57.380Z,101727.88
2022-10-13T05:45:26.034Z,101719.91
2022-10-13T05:47:53.951Z,101726.19
2022-10-13T05:50:21.894Z,101727.06
2022-10-13T05:52:50.203Z,101714.63
2022-10-13T05:55:20.099Z,101717.31
2022-10-13T05:57:53.250Z,101711.09
2022-10-13T06:00:21.738Z,101710.22
2022-10-13T06:02:53.539Z,101715.56
2022-10-13T06:05:24.773Z,101718.16
2022-10-13T06:07:53.030Z,101714.69
2022-10-13T06:10:21.122Z,101711.22
2022-10-13T06:12:50.461Z,101719.25
2022-10-13T06:15:18.552Z,101714.78
2022-10-13T06:17:46.479Z,101707.59
2022-10-13T06:20:16.481Z,101701.38
2022-10-13T06:22:44.367Z,101694.16
2022-10-13T06:25:12.300Z,101694.22
2022-10-13T06:27:40.191Z,101705.78
2022-10-13T06:30:12.345Z,101701.38
2022-10-13T06:32:40.308Z,101703.19
2022-10-13T06:35:10.365Z,101688.94
2022-10-13T06:37:38.293Z,101691.63
2022-10-13T06:40:07.192Z,101692.56
2022-10-13T06:42:35.139Z,101696.13
2022-10-13T06:45:06.567Z,101696.16
2022-10-13T06:47:35.864Z,101698.78
2022-10-13T06:50:03.805Z,101695.25
2022-10-13T06:52:31.721Z,101690.75
2022-10-13T06:54:59.598Z,101692.56
2022-10-13T06:57:27.496Z,101692.56
2022-10-13T06:59:58.468Z,101685.41
2022-10-13T07:02:26.415Z,101682.72
2022-10-13T07:04:55.665Z,101689.91
2022-10-13T07:07:23.642Z,101693.50
2022-10-13T07:14:11.496Z,101688.09
2022-10-13T07:16:39.437Z,101686.31
2022-10-13T07:19:07.428Z,101680.09
2022-10-13T07:21:36.873Z,101688.09
2022-10-13T07:24:05.230Z,101687.22
2022-10-13T07:26:33.995Z,101685.47
2022-10-13T07:29:02.070Z,101689.91
2022-10-13T07:31:30.094Z,101686.31
2022-10-13T07:34:00.338Z,101685.41
2022-10-13T07:36:28.690Z,101688.09
2022-10-13T07:38:58.500Z,101693.44
2022-10-13T07:41:26.459Z,101691.69
2022-10-13T07:43:56.410Z,101695.25
2022-10-13T07:46:25.464Z,101696.97
2022-10-13T07:48:53.892Z,101696.03
2022-10-13T07:51:22.866Z,101699.66
2022-10-13T07:53:51.193Z,101688.94
2022-10-13T07:56:20.588Z,101683.59
2022-10-13T07:58:48.841Z,101693.34
2022-10-13T08:01:17.951Z,101696.03
2022-10-13T08:03:49.930Z,101701.38
2022-10-13T08:06:18.825Z,101691.53
2022-10-13T08:08:46.821Z,101680.81
2022-10-13T08:11:16.942Z,101685.22
2022-10-13T08:13:49.910Z,101695.06
2022-10-13T08:16:18.014Z,101687.03
2022-10-13T08:18:46.104Z,101686.19
2022-10-13T08:21:45.754Z,101683.50
2022-10-13T08:24:06.161Z,101688.00
2022-10-13T08:26:34.222Z,101686.25
2022-10-13T08:29:20.608Z,101681.78
2022-10-13T08:34:23.323Z,101675.56
2022-10-13T08:36:53.130Z,101681.69
2022-10-13T08:39:21.880Z,101683.59
2022-10-13T08:41:50.072Z,101684.44
2022-10-13T08:45:05.932Z,101682.63
2022-10-13T08:47:25.435Z,101682.63
2022-10-13T08:49:59.791Z,101688.94
2022-10-13T08:52:30.666Z,101689.81
2022-10-13T08:54:59.225Z,101688.94
2022-10-13T08:57:27.256Z,101682.63
2022-10-13T08:59:56.584Z,101689.81
2022-10-13T09:02:30.398Z,101691.63
2022-10-13T09:05:02.286Z,101696.97
2022-10-13T09:07:34.648Z,101688.94
2022-10-13T09:10:02.754Z,101689.81
2022-10-13T09:12:31.550Z,101681.78
2022-10-13T09:15:05.177Z,101679.97
2022-10-13T09:17:34.527Z,101679.97
2022-10-13T09:20:06.076Z,101675.56
2022-10-13T09:22:36.090Z,101670.09
2022-10-13T09:25:21.311Z,101670.09
2022-10-13T09:27:52.547Z,101667.44
2022-10-13T09:30:34.534Z,101665.63
2022-10-13T09:33:22.181Z,101665.63
2022-10-13T09:36:08.072Z,101669.16
2022-10-13T09:38:36.531Z,101664.69
2022-10-13T09:41:07.304Z,101655.78
2022-10-13T09:43:37.520Z,101653.97
2022-10-13T09:46:19.614Z,101661.06
2022-10-13T09:48:52.567Z,101659.25
2022-10-13T09:51:38.939Z,101662.69
2022-10-13T09:54:07.730Z,101657.28
2022-10-13T09:56:43.020Z,101654.59
2022-10-13T09:59:23.327Z,101653.66
2022-10-13T10:01:54.821Z,101661.69
2022-10-13T10:04:27.223Z,101651.84
2022-10-13T10:06:55.224Z,101649.16
2022-10-13T10:09:38.772Z,101657.19
2022-10-13T10:12:08.114Z,101655.38
2022-10-13T10:14:38.827Z,101655.31
2022-10-13T10:17:18.545Z,101648.25
2022-10-13T10:19:54.664Z,101648.16
2022-10-13T10:22:35.251Z,101652.56
2022-10-13T10:25:20.598Z,101657.91
2022-10-13T10:28:01.887Z,101649.88
2022-10-13T10:30:32.268Z,101654.28
2022-10-13T10:33:06.772Z,101649.88
2022-10-13T10:35:45.347Z,101652.56
2022-10-13T10:38:27.775Z,101653.41
2022-10-13T10:41:07.487Z,101646.25
2022-10-13T10:43:53.890Z,101647.19
2022-10-13T10:46:24.446Z,101640.88
2022-10-13T10:48:59.893Z,101644.47
2022-10-13T10:51:32.538Z,101642.72
2022-10-13T10:54:14.633Z,101632.09
2022-10-13T10:56:48.704Z,101630.19
2022-10-13T10:59:27.915Z,101629.41
2022-10-13T11:02:11.296Z,101635.53
2022-10-13T11:04:45.231Z,101626.72
2022-10-13T11:07:36.014Z,101624.91
2022-10-13T11:10:21.145Z,101632.09
2022-10-13T11:13:22.308Z,101629.41
2022-10-13T11:15:50.650Z,101635.72
2022-10-13T11:18:53.912Z,101638.38
2022-10-13T11:21:23.563Z,101630.34
2022-10-13T11:23:51.977Z,101633.97
2022-10-13T11:26:43.177Z,101630.41
2022-10-13T11:29:19.960Z,101632.19
2022-10-13T11:31:55.232Z,101625.00
2022-10-13T11:34:32.047Z,101626.81
2022-10-13T11:37:03.385Z,101625.06
2022-10-13T11:40:07.883Z,101624.19
2022-10-13T11:42:59.535Z,101620.66
2022-10-13T11:45:45.953Z,101617.13
2022-10-13T11:48:51.133Z,101613.47
2022-10-13T11:51:31.175Z,101613.47
2022-10-13T11:54:17.348Z,101613.56
2022-10-13T11:56:48.802Z,101596.66
2022-10-13T11:59:26.622Z,101600.19
2022-10-13T12:01:55.933Z,101596.56
2022-10-13T12:04:25.821Z,101596.66
2022-10-13T12:06:58.266Z,101600.19
2022-10-13T12:09:28.575Z,101590.41
2022-10-13T12:12:03.412Z,101593.97
2022-10-13T12:17:04.579Z,101594.88
2022-10-13T12:19:33.280Z,101584.19
2022-10-13T12:22:02.565Z,101585.13
2022-10-13T12:24:33.807Z,101584.19
2022-10-13T12:27:12.353Z,101585.94
2022-10-13T12:29:41.691Z,101579.78
2022-10-13T12:32:20.893Z,101579.78
2022-10-13T12:34:48.825Z,101577.09
2022-10-13T12:37:28.071Z,101579.78
2022-10-13T12:39:59.513Z,101577.09
2022-10-13T12:42:31.504Z,101569.91
2022-10-13T12:45:01.413Z,101571.75
2022-10-13T12:47:41.380Z,101569.06
2022-10-13T12:50:23.138Z,101573.56
2022-10-13T12:52:52.645Z,101569.06
2022-10-13T12:55:23.900Z,101568.19
2022-10-13T12:57:52.650Z,101561.97
2022-10-13T13:00:23.959Z,101565.53
2022-10-13T13:02:54.296Z,101561.97
2022-10-13T13:05:32.727Z,101561.97
2022-10-13T13:08:01.685Z,101566.47
2022-10-13T13:10:35.135Z,101562.03
2022-10-13T13:13:15.085Z,101561.13
2022-10-13T13:15:43.081Z,101568.19
2022-10-13T13:18:36.269Z,101570.97
2022-10-13T13:21:07.060Z,101573.66
2022-10-13T13:23:35.949Z,101573.66
2022-10-13T13:26:13.212Z,101566.53
2022-10-13T13:28:45.557Z,101563.84
2022-10-13T13:31:14.641Z,101558.50
2022-10-13T13:33:42.560Z,101565.63
2022-10-13T13:36:16.382Z,101560.25
2022-10-13T13:38:44.485Z,101551.41
2022-10-13T13:41:14.777Z,101552.53
2022-10-13T13:43:43.256Z,101546.38
2022-10-13T13:46:16.903Z,101557.06
2022-10-13T13:48:47.154Z,101547.41
2022-10-13T13:51:15.833Z,101548.38
2022-10-13T13:53:44.218Z,101541.19
2022-10-13T13:56:17.568Z,101545.69
2022-10-13T13:58:45.662Z,101540.41
2022-10-13T14:01:14.477Z,101543.06
2022-10-13T14:03:42.430Z,101539.53
2022-10-13T14:06:17.472Z,101536.84
2022-10-13T14:08:45.706Z,101535.91
2022-10-13T14:11:15.091Z,101533.22
2022-10-13T14:13:43.145Z,101535.84
2022-10-13T14:16:16.751Z,101530.50
2022-10-13T14:18:44.743Z,101526.06
2022-10-13T14:21:13.162Z,101521.59
2022-10-13T14:23:45.613Z,101524.19
2022-10-13T14:26:15.241Z,101519.78
2022-10-13T14:28:44.017Z,101513.47
2022-10-13T14:31:12.625Z,101519.69
2022-10-13T14:33:50.781Z,101507.16
2022-10-13T14:36:21.428Z,101514.25
2022-10-13T14:38:51.476Z,101522.28
2022-10-13T14:41:21.036Z,101523.16
2022-10-13T14:43:48.961Z,101524.03
2022-10-13T14:46:16.908Z,101522.22
2022-10-13T14:48:44.777Z,101524.03
2022-10-13T14:51:12.915Z,101527.56
2022-10-13T14:53:42.681Z,101520.50
2022-10-13T14:56:19.799Z,101519.59
2022-10-13T14:58:50.399Z,101513.38
2022-10-13T15:01:19.395Z,101517.72
2022-10-13T15:03:48.018Z,101518.53
2022-10-13T15:06:17.985Z,101517.56
2022-10-13T15:08:46.447Z,101513.06
2022-10-13T15:11:15.482Z,101507.72
2022-10-13T15:13:43.509Z,101510.31
2022-10-13T15:16:17.827Z,101500.44
2022-10-13T15:18:46.099Z,101501.34
2022-10-13T15:21:16.997Z,101500.28
2022-10-13T15:23:45.273Z,101493.97
2022-10-13T15:26:14.886Z,101495.66
2022-10-13T15:28:44.744Z,101491.09
2022-10-13T15:31:15.701Z,101491.00
2022-10-13T15:33:44.809Z,101487.47
2022-10-13T15:36:12.763Z,101482.88
2022-10-13T15:38:41.212Z,101486.34
2022-10-13T15:41:09.353Z,101480.97
2022-10-13T15:43:37.250Z,101483.50
2022-10-13T15:46:07.857Z,101476.25
2022-10-13T15:48:37.188Z,101475.31
2022-10-13T15:51:14.771Z,101474.34
2022-10-13T15:53:42.713Z,101475.31
2022-10-13T15:56:10.657Z,101476.06
2022-10-13T15:58:38.614Z,101484.13
2022-10-13T16:01:08.944Z,101484.13
2022-10-13T16:03:38.655Z,101484.91
2022-10-13T16:06:08.785Z,101478.66
2022-10-13T16:08:39.691Z,101489.31
2022-10-13T16:11:12.386Z,101491.13
2022-10-13T16:13:42.127Z,101488.47
2022-10-13T16:16:10.093Z,101487.59
2022-10-13T16:18:40.500Z,101485.78
2022-10-13T16:21:18.077Z,101483.97
2022-10-13T16:23:46.924Z,101484.91
2022-10-13T16:26:15.217Z,101487.50
2022-10-13T16:28:45.205Z,101483.97
2022-10-13T16:31:15.949Z,101481.19
2022-10-13T16:33:46.425Z,101482.03
2022-10-13T16:36:15.921Z,101474.91
2022-10-13T16:38:44.078Z,101478.50
2022-10-13T16:41:14.511Z,101477.66
2022-10-13T16:43:43.222Z,101483.97
2022-10-13T16:46:13.453Z,101480.31
2022-10-13T16:48:43.230Z,101475.91
2022-10-13T16:51:16.315Z,101471.53
2022-10-13T16:53:49.148Z,101472.44
2022-10-13T16:56:21.914Z,101478.66
2022-10-13T16:58:52.283Z,101484.13
2022-10-13T17:01:23.271Z,101483.25
2022-10-13T17:03:52.067Z,101478.00
2022-10-13T17:06:23.462Z,101483.25
2022-10-13T17:08:51.633Z,101481.53
2022-10-13T17:11:21.453Z,101478.84
2022-10-13T17:13:50.458Z,101492.06
2022-10-13T17:16:19.549Z,101487.50
2022-10-13T17:18:47.596Z,101481.28
2022-10-13T17:21:17.407Z,101489.31
2022-10-13T17:23:48.877Z,101497.25
2022-10-13T17:26:21.068Z,101496.41
2022-10-13T17:28:52.834Z,101492.75
2022-10-13T17:31:23.361Z,101499.94
2022-10-13T17:33:52.260Z,101497.25
2022-10-13T17:36:24.084Z,101497.19
2022-10-13T17:38:55.594Z,101507.91
2022-10-13T17:41:24.449Z,101492.75
2022-10-13T17:43:53.528Z,101501.69
2022-10-13T17:46:39.484Z,101499.00
2022-10-13T17:49:10.346Z,101507.00
2022-10-13T17:51:38.411Z,101508.81
2022-10-13T17:54:11.595Z,101507.00
2022-10-13T17:56:42.784Z,101504.31
2022-10-13T17:59:10.932Z,101498.94
2022-10-13T18:01:41.956Z,101507.00
2022-10-13T18:04:12.969Z,101512.34
2022-10-13T18:06:43.995Z,101511.47
2022-10-13T18:09:15.568Z,101511.47
2022-10-13T18:11:49.732Z,101510.59
2022-10-13T18:14:18.822Z,101513.28
2022-10-13T18:16:47.067Z,101510.59
2022-10-13T18:19:18.773Z,101513.28
2022-10-13T18:21:46.815Z,101508.84
2022-10-13T18:24:16.229Z,101505.22
2022-10-13T18:26:44.231Z,101511.47
2022-10-13T18:29:13.514Z,101512.34
2022-10-13T18:31:42.964Z,101511.50
2022-10-13T18:34:13.861Z,101511.50
2022-10-13T18:36:43.975Z,101509.72
2022-10-13T18:39:14.582Z,101514.19
2022-10-13T18:41:44.125Z,101511.50
2022-10-13T18:44:12.393Z,101510.75
2022-10-13T18:46:40.449Z,101521.31
2022-10-13T18:49:12.584Z,101519.56
2022-10-13T18:51:40.989Z,101524.91
2022-10-13T18:54:09.405Z,101523.19
2022-10-13T18:56:37.799Z,101518.78
2022-10-13T18:59:08.734Z,101517.91
2022-10-13T19:01:38.339Z,101525.09
2022-10-13T19:04:06.825Z,101526.03
2022-10-13T19:06:35.593Z,101529.66
2022-10-13T19:09:06.201Z,101525.16
2022-10-13T19:11:34.534Z,101526.97
2022-10-13T19:14:03.443Z,101525.25
2022-10-13T19:16:36.103Z,101529.66
2022-10-13T19:19:04.428Z,101521.63
2022-10-13T19:21:34.413Z,101527.84
2022-10-13T19:24:02.582Z,101522.56
2022-10-13T19:26:32.665Z,101520.75
2022-10-13T19:29:02.674Z,101528.78
2022-10-13T19:31:33.813Z,101524.41
2022-10-13T19:34:02.205Z,101525.25
2022-10-13T19:36:33.097Z,101525.25
2022-10-13T19:39:02.233Z,101521.72
2022-10-13T19:41:32.070Z,101521.72
2022-10-13T19:44:00.517Z,101520.84
2022-10-13T19:46:28.406Z,101535.97
2022-10-13T19:48:57.693Z,101535.97
2022-10-13T19:51:28.006Z,101544.00
2022-10-13T19:53:56.006Z,101547.63
2022-10-13T19:56:26.105Z,101544.97
2022-10-13T19:58:55.317Z,101539.59
2022-10-13T20:01:23.709Z,101553.00
2022-10-13T20:03:52.018Z,101555.69
2022-10-13T20:06:22.201Z,101553.00
2022-10-13T20:08:50.558Z,101553.00
2022-10-13T20:11:23.730Z,101559.97
2022-10-13T20:13:55.333Z,101554.72
2022-10-13T20:16:26.641Z,101554.72
2022-10-13T20:18:56.493Z,101555.69
2022-10-13T20:21:27.687Z,101558.34
2022-10-13T20:23:56.145Z,101557.56
2022-10-13T20:26:24.757Z,101551.41
2022-10-13T20:28:54.394Z,101558.56
2022-10-13T20:31:25.005Z,101564.78
2022-10-13T20:33:55.888Z,101567.47
2022-10-13T20:36:26.550Z,101561.34
2022-10-13T20:38:55.211Z,101552.50
2022-10-13T20:41:27.242Z,101565.84
2022-10-13T20:43:56.932Z,101569.47
2022-10-13T20:46:25.513Z,101569.53
2022-10-13T20:49:11.926Z,101571.34
2022-10-13T20:51:43.188Z,101571.34
2022-10-13T20:54:12.026Z,101575.84
2022-10-13T20:56:40.341Z,101581.19
2022-10-13T20:59:10.994Z,101574.03
2022-10-13T21:01:39.314Z,101577.56
2022-10-13T21:04:08.035Z,101585.69
2022-10-13T21:06:36.846Z,101575.03
2022-10-13T21:09:07.368Z,101582.22
2022-10-13T21:11:35.958Z,101581.34
2022-10-13T21:14:06.514Z,101593.00
2022-10-13T21:16:35.320Z,101589.47
2022-10-13T21:19:06.100Z,101591.28
2022-10-13T21:21:35.962Z,101592.22
2022-10-13T21:24:07.398Z,101593.25
2022-10-13T21:26:38.207Z,101597.75
2022-10-13T21:29:06.909Z,101594.19
2022-10-13T21:31:35.013Z,101601.34
2022-10-13T21:34:03.187Z,101606.69
2022-10-13T21:36:32.848Z,101608.53
2022-10-13T21:39:02.443Z,101602.28
2022-10-13T21:41:31.952Z,101602.38
2022-10-13T21:43:59.964Z,101603.25
2022-10-13T21:46:30.044Z,101607.75
2022-10-13T21:48:59.896Z,101613.09
2022-10-13T21:51:29.678Z,101603.31
2022-10-13T21:54:00.102Z,101604.25
2022-10-13T21:56:29.003Z,101609.63
2022-10-13T21:58:58.266Z,101609.63
2022-10-13T22:01:26.296Z,101607.91
2022-10-13T22:03:56.376Z,101611.53
2022-10-13T22:06:24.788Z,101600.81
2022-10-13T22:08:57.307Z,101602.69
2022-10-13T22:11:27.285Z,101603.53
2022-10-13T22:13:58.761Z,101600.88
2022-10-13T22:16:29.470Z,101599.16
2022-10-13T22:18:59.110Z,101595.59
2022-10-13T22:21:28.927Z,101597.34
2022-10-13T22:23:58.230Z,101592.06
2022-10-13T22:26:27.172Z,101584.94
2022-10-13T22:28:55.156Z,101584.94
2022-10-13T22:31:24.502Z,101587.63
2022-10-13T22:33:53.735Z,101585.91
2022-10-13T22:36:23.956Z,101584.19
2022-10-13T22:38:54.485Z,101581.50
2022-10-13T22:41:22.614Z,101573.47
2022-10-13T22:43:51.182Z,101578.84
2022-10-13T22:46:24.871Z,101563.72
2022-10-13T22:48:53.006Z,101568.97
2022-10-13T22:51:22.991Z,101562.84
2022-10-13T22:53:51.726Z,101562.84
2022-10-13T22:56:21.657Z,101561.19
2022-10-13T22:58:53.146Z,101562.91
2022-10-13T23:01:22.657Z,101562.91
2022-10-13T23:03:55.796Z,101551.34
2022-10-13T23:06:26.257Z,101553.16
2022-10-13T23:08:54.663Z,101545.13
2022-10-13T23:11:24.684Z,101538.03
2022-10-13T23:13:52.738Z,101534.47
2022-10-13T23:16:23.022Z,101544.25
2022-10-13T23:18:52.611Z,101547.88
2022-10-13T23:21:22.507Z,101547.00
2022-10-13T23:23:55.930Z,101548.81
2022-10-13T23:26:24.758Z,101538.97
2022-10-13T23:28:54.884Z,101541.66
2022-10-13T23:31:22.920Z,101545.28
2022-10-13T23:33:54.762Z,101537.25
2022-10-13T23:36:25.314Z,101534.56
2022-10-13T23:38:55.842Z,101529.31
2022-10-13T23:41:24.171Z,101526.63
2022-10-13T23:43:52.261Z,101534.56
2022-10-13T23:46:20.662Z,101530.16
2022-10-13T23:48:48.682Z,101530.16
2022-10-13T23:51:20.306Z,101524.00
2022-10-13T23:53:48.753Z,101527.56
2022-10-13T23:56:16.994Z,101524.00
2022-10-13T23:58:45.772Z,101526.69
